Pagrindinis puslapis
METAR-TAF:

METAR-TAF

Oro uostai :

Rio Galjegosas, Argentina

platuma: 51-37S, ilguma: 069-17W, Aukštis: 20 m

Dabartinis oras

Ataskaita buvo paskelbta 1 valandą ir 29 minutes, ne 22:00 UTC
Vėjas 15 kt iš Vakarų/Pietvakarių
Temperatūra 24°C
Drėgmė 36%
Slėgis 1020 hPa
Matomumas 10 km arba daugiau
nėra debesų žemiau 1500 m ir nėra kamuolinių lietaus debesų

METAR: SAWG 212200Z 25015KT CAVOK 24/08 Q1020

Laikas: 20:29 (23:29 UTC)

Prognozė

Ataskaita buvo paskelbta 6 valandos ir 29 minutes, ne 17:00 UTC
Prognozė galioja nuo 21 metu 18 UTC su 22 metu 18 UTC
Vėjas 15 kt iš Pietų/Pietvakarių
Matomumas 10 km arba daugiau
Išsisklaidę debesys ne aukštis 3500 ft
Tapsmas
nuo 21 metu 23 UTC su 22 metu 01 UTC
Vėjas 5 kt nuo kintamojo kryptimis
Tapsmas
nuo 22 metu 13 UTC su 22 metu 15 UTC
Vėjas 10 kt iš Šiaurės

TAF: SAWG 211700Z 2118/2218 20015KT 9999 SCT035 TX25/2118Z TN11/2210Z BECMG 2123/2201 VRB05KT BECMG 2213/2215 36010KT

Orai ataskaitas ir orų prognozės (METAR, TAF).

turimą stotys yra geltonos ir raudonos taškus žemėlapyje.

Perkelti pele per norėdami pamatyti stoties vardą.

Tada spustelėkite, norėdami matyti oro stebėjimo ir prognozės.

Norėdami pakeisti žemėlapį: spustelėkite ant žalios mygtukų su juodo kryžiaus žemyn,; žalią mygtuką su brūkšneliu, jei norite nutolinti; arba žalių rodyklių gretimoms žemėlapius.


METAR-TAF: